Calverton, Virginia
Current Conditions -  °F | °C
As of 12:55 PM on Tuesday 21 Oct 2014 (Local Time) from KHWY Reporting Station
Clear Clear  
Wind Chill: 72°   Ceiling: Unl
Heat Index: 72°   Visibility: 10mi
Dew Point: 53°   Wind: 3mph
Humidity: 51%   Direction: 320°NW
Pressure: 29.83"   Gusts: NA
Location:  38.63°N, 77.67°W
Report Text: KHWY 211655Z AUTO 32003KT 10SM CLR 22/12 A2983 RMK AO2 T02220116
Loading
Personal Weather Stations






























Interactive Weather Map
Tropical Storm Tracking
New forecast layout! Learn more

10-Day Weather Forecast

Advertisements
Track Severe Weather on mobile